Time;durP1;ratioP1;P1;durP2;ratioP2;P2;SDS_P1;SDS_P2;PMS_P1;PMS_P2;Temp;Humidity;BMP_temperature;BMP_pressure;BME280_temperature;BME280_humidity;BME280_pressure;Samples;Min_cycle;Max_cycle;Signal;HPM_P1;HPM_P2
2023/03/23 00:02:25;;;;;;;6.00;2.40;;;12.60;99.90;;;;;;5179606;27;20446;-90
2023/03/23 00:04:52;;;;;;;4.30;2.20;;;12.60;99.90;;;;;;5161983;27;20451;-91
2023/03/23 00:07:21;;;;;;;6.60;3.10;;;12.70;99.90;;;;;;5162746;27;20450;-90
2023/03/23 00:09:53;;;;;;;5.20;2.63;;;12.60;99.90;;;;;;5161270;27;20938;-91
2023/03/23 00:12:28;;;;;;;5.20;2.27;;;12.50;99.90;;;;;;5161257;27;20454;-91
2023/03/23 00:14:55;;;;;;;4.23;2.43;;;12.50;99.90;;;;;;5161450;27;20458;-91
2023/03/23 00:17:23;;;;;;;5.30;2.40;;;12.50;99.90;;;;;;5161596;27;20933;-91
2023/03/23 00:19:50;;;;;;;8.97;2.50;;;12.60;99.90;;;;;;5164147;27;20442;-91
2023/03/23 00:22:20;;;;;;;7.80;2.67;;;12.70;99.90;;;;;;5174738;27;20443;-92
2023/03/23 00:24:53;;;;;;;5.23;2.50;;;12.60;99.90;;;;;;5160980;27;20447;-91
2023/03/23 00:27:22;;;;;;;4.10;2.00;;;12.70;99.90;;;;;;5144189;27;20450;-91
2023/03/23 00:29:53;;;;;;;4.93;2.37;;;12.70;99.90;;;;;;5176162;27;20466;-91
2023/03/23 00:32:27;;;;;;;6.03;2.47;;;12.80;99.90;;;;;;5159800;27;20465;-91
2023/03/23 00:34:55;;;;;;;5.67;2.13;;;12.80;99.90;;;;;;5165231;27;20453;-91
2023/03/23 00:37:24;;;;;;;9.53;3.30;;;12.70;99.90;;;;;;5181512;27;20446;-91
2023/03/23 00:39:57;;;;;;;5.10;2.40;;;12.70;99.90;;;;;;5161064;27;21011;-91
2023/03/23 00:42:28;;;;;;;4.53;1.80;;;12.70;99.90;;;;;;5160982;27;20443;-91
2023/03/23 00:44:59;;;;;;;7.60;2.37;;;12.70;99.90;;;;;;5180913;27;20945;-90
2023/03/23 00:47:27;;;;;;;7.67;1.90;;;12.70;99.90;;;;;;5176890;27;20534;-91
2023/03/23 00:49:55;;;;;;;8.80;2.77;;;12.70;99.90;;;;;;5160834;27;20479;-90
2023/03/23 00:52:27;;;;;;;6.63;2.80;;;12.70;99.90;;;;;;5144809;27;20455;-91
2023/03/23 00:54:57;;;;;;;4.20;1.90;;;12.60;99.90;;;;;;5172156;27;21036;-91
2023/03/23 00:57:25;;;;;;;5.17;2.20;;;12.70;99.90;;;;;;5161157;27;20451;-89
2023/03/23 00:59:52;;;;;;;5.03;2.10;;;12.50;99.90;;;;;;5142234;27;20443;-91
2023/03/23 01:02:19;;;;;;;5.80;2.27;;;12.50;99.90;;;;;;5161533;27;20450;-91
2023/03/23 01:04:46;;;;;;;4.10;1.47;;;12.60;99.90;;;;;;5162729;27;20454;-90
2023/03/23 01:07:14;;;;;;;4.93;2.10;;;12.60;99.90;;;;;;5162353;27;20975;-92
2023/03/23 01:09:44;;;;;;;6.80;2.97;;;12.70;99.90;;;;;;5181193;27;20481;-91
2023/03/23 01:12:14;;;;;;;6.63;2.40;;;12.50;99.90;;;;;;5148979;27;20451;-90
2023/03/23 01:14:42;;;;;;;6.10;3.00;;;12.50;99.90;;;;;;5159789;27;20455;-90
2023/03/23 01:17:09;;;;;;;8.37;2.83;;;12.40;99.90;;;;;;5159549;27;20824;-91
2023/03/23 01:19:37;;;;;;;4.90;2.87;;;12.40;99.90;;;;;;5141522;27;20478;-90
2023/03/23 01:22:04;;;;;;;8.40;3.40;;;12.30;99.90;;;;;;5160245;27;20451;-90
2023/03/23 01:24:32;;;;;;;8.20;4.87;;;12.20;99.90;;;;;;5160345;27;20450;-90
2023/03/23 01:27:01;;;;;;;7.60;6.07;;;12.10;99.90;;;;;;5160633;27;20468;-90
2023/03/23 01:29:29;;;;;;;13.43;12.43;;;12.10;99.90;;;;;;5159566;27;20466;-90
2023/03/23 01:32:00;;;;;;;35.40;33.67;;;12.00;99.90;;;;;;5160979;27;20446;-94
2023/03/23 01:34:27;;;;;;;12.47;11.47;;;11.90;99.90;;;;;;5161278;27;20480;-92
2023/03/23 01:36:55;;;;;;;22.70;21.37;;;11.90;99.90;;;;;;5143749;27;20522;-95
2023/03/23 01:39:22;;;;;;;159.20;153.93;;;11.80;99.90;;;;;;5142959;27;20553;-93
2023/03/23 01:41:49;;;;;;;300.87;291.20;;;11.70;99.90;;;;;;5160691;27;20442;-93
2023/03/23 01:44:53;;;;;;;399.83;385.07;;;11.60;99.90;;;;;;5181435;27;20540;-93
2023/03/23 01:47:26;;;;;;;372.17;359.30;;;11.40;99.90;;;;;;5140968;27;20500;-93
2023/03/23 01:49:53;;;;;;;452.03;434.80;;;11.40;99.90;;;;;;5106298;27;20475;-93
2023/03/23 01:52:28;;;;;;;421.97;406.63;;;11.50;99.90;;;;;;5161316;27;20455;-92
2023/03/23 01:54:57;;;;;;;364.37;351.67;;;11.40;99.90;;;;;;5160326;27;20489;-92
2023/03/23 01:57:29;;;;;;;416.83;401.17;;;11.40;99.90;;;;;;5138642;27;20447;-91
2023/03/23 01:59:59;;;;;;;316.77;306.20;;;11.40;99.90;;;;;;5139813;27;20451;-93
2023/03/23 02:02:28;;;;;;;164.00;158.37;;;11.30;99.90;;;;;;5129251;27;20447;-94
2023/03/23 02:05:04;;;;;;;265.30;256.30;;;11.40;99.90;;;;;;5161176;27;20964;-94
2023/03/23 02:07:33;;;;;;;153.87;148.73;;;11.40;99.90;;;;;;5161024;27;20477;-94
2023/03/23 02:10:03;;;;;;;227.53;220.13;;;11.30;99.90;;;;;;5162262;27;20541;-93
2023/03/23 02:12:31;;;;;;;133.30;128.70;;;11.30;99.90;;;;;;5142122;27;20976;-93
2023/03/23 02:15:08;;;;;;;;;;;;;;;;;;;;;
2023/03/23 02:17:41;;;;;;;159.60;154.00;;;11.50;99.90;;;;;;5180354;27;20445;-92
2023/03/23 02:20:20;;;;;;;208.20;201.30;;;11.50;99.90;;;;;;5180543;27;20872;-90
2023/03/23 02:23:26;;;;;;;121.47;117.20;;;11.50;99.90;;;;;;5173522;27;20435;-91
2023/03/23 02:26:05;;;;;;;172.87;166.87;;;11.60;99.90;;;;;;5160010;27;20723;-90
2023/03/23 02:28:53;;;;;;;249.50;241.37;;;11.50;99.90;;;;;;5161974;27;20493;-89
2023/03/23 02:31:46;;;;;;;230.07;222.67;;;11.50;99.90;;;;;;5146808;27;20488;-89
2023/03/23 02:34:19;;;;;;;187.23;181.20;;;11.40;99.90;;;;;;5147738;27;20454;-90
2023/03/23 02:36:51;;;;;;;183.13;177.13;;;11.50;99.90;;;;;;5164834;27;20442;-89
2023/03/23 02:39:23;;;;;;;233.87;225.90;;;11.50;99.90;;;;;;5177479;27;20472;-89
2023/03/23 02:41:54;;;;;;;212.23;205.27;;;11.40;99.90;;;;;;5178551;27;20978;-89
2023/03/23 02:44:23;;;;;;;293.33;283.47;;;11.30;99.90;;;;;;5178247;27;20442;-88
2023/03/23 02:46:53;;;;;;;297.67;287.80;;;11.20;99.90;;;;;;5178563;27;20442;-89
2023/03/23 02:49:25;;;;;;;315.57;304.87;;;11.20;99.90;;;;;;5177220;27;20538;-89
2023/03/23 02:51:54;;;;;;;284.57;275.40;;;11.30;99.90;;;;;;5178772;27;20941;-89
2023/03/23 02:54:24;;;;;;;266.67;258.10;;;11.30;99.90;;;;;;5174174;27;20451;-89
2023/03/23 02:56:52;;;;;;;242.97;235.30;;;11.30;99.90;;;;;;5162306;27;20454;-88
2023/03/23 02:59:34;;;;;;;199.07;192.70;;;11.30;99.90;;;;;;5167132;27;20478;-88
2023/03/23 03:02:08;;;;;;;205.43;198.83;;;11.40;99.90;;;;;;5183222;27;20549;-88
2023/03/23 03:04:40;;;;;;;168.13;162.67;;;11.50;99.90;;;;;;5167056;27;20449;-88
2023/03/23 03:07:38;;;;;;;191.87;185.67;;;11.50;99.90;;;;;;5144436;27;20454;-89
2023/03/23 03:10:12;;;;;;;183.57;177.67;;;11.50;99.90;;;;;;5180105;27;20476;-89
2023/03/23 03:12:47;;;;;;;159.20;154.07;;;11.50;99.90;;;;;;5182807;27;20460;-88
2023/03/23 03:15:22;;;;;;;122.27;118.20;;;11.40;99.90;;;;;;5165651;27;20453;-89
2023/03/23 03:20:34;;;;;;;181.30;175.40;;;11.50;99.90;;;;;;5287576;22;20503;-90
2023/03/23 03:23:02;;;;;;;248.20;240.27;;;11.50;99.90;;;;;;5120470;28;20492;-90
2023/03/23 03:25:30;;;;;;;224.47;217.30;;;11.30;99.90;;;;;;5121783;28;20449;-91
2023/03/23 03:27:58;;;;;;;218.10;211.20;;;11.40;99.90;;;;;;5122125;28;20856;-89
2023/03/23 03:30:34;;;;;;;183.57;177.67;;;11.40;99.90;;;;;;5100780;28;20837;-91
2023/03/23 03:33:02;;;;;;;169.43;164.00;;;11.40;99.90;;;;;;5117060;28;20998;-92
2023/03/23 03:35:32;;;;;;;170.30;164.57;;;11.40;99.90;;;;;;5102978;28;20475;-91
2023/03/23 03:38:07;;;;;;;146.80;141.90;;;11.50;99.90;;;;;;5103462;28;20491;-91
2023/03/23 03:40:35;;;;;;;150.50;145.47;;;11.40;99.90;;;;;;5120993;28;20536;-91
2023/03/23 03:43:03;;;;;;;225.43;218.20;;;11.50;99.90;;;;;;5100473;28;20520;-91
2023/03/23 03:45:30;;;;;;;180.83;174.63;;;11.40;99.90;;;;;;5101551;28;20452;-91
2023/03/23 03:47:57;;;;;;;164.33;159.03;;;11.50;99.90;;;;;;5108932;28;20464;-93
2023/03/23 03:50:24;;;;;;;147.33;142.20;;;11.50;99.90;;;;;;5120394;28;20849;-93
2023/03/23 03:52:52;;;;;;;111.67;107.73;;;11.60;99.90;;;;;;5121147;28;20449;-92
2023/03/23 03:55:19;;;;;;;97.37;94.03;;;11.60;99.90;;;;;;5121700;28;20460;-92
2023/03/23 03:57:46;;;;;;;95.40;91.97;;;11.60;99.90;;;;;;5116929;28;20476;-92
2023/03/23 04:00:16;;;;;;;102.93;99.43;;;11.70;99.90;;;;;;5101011;28;21021;-93
2023/03/23 04:02:47;;;;;;;73.50;70.80;;;11.70;99.90;;;;;;5114780;28;20445;-93
2023/03/23 04:05:15;;;;;;;52.73;50.57;;;11.70;99.90;;;;;;5117036;28;20544;-93
2023/03/23 04:07:42;;;;;;;45.37;43.37;;;11.70;99.90;;;;;;5136507;27;20477;-92
2023/03/23 04:10:12;;;;;;;34.47;32.93;;;11.70;99.90;;;;;;5118506;28;20484;-94
2023/03/23 04:12:40;;;;;;;33.03;31.57;;;11.70;99.90;;;;;;5112179;28;20468;-93
2023/03/23 04:15:11;;;;;;;31.93;30.50;;;11.80;99.90;;;;;;5242855;22;20489;-80
2023/03/23 04:17:42;;;;;;;21.63;20.17;;;11.80;99.90;;;;;;5082101;28;21041;-80
2023/03/23 04:20:17;;;;;;;21.87;20.60;;;11.90;99.90;;;;;;5099729;28;20452;-76
2023/03/23 04:22:48;;;;;;;23.17;22.07;;;11.80;99.90;;;;;;5105019;28;20450;-83
2023/03/23 04:25:23;;;;;;;24.07;22.30;;;11.80;99.90;;;;;;5109712;28;20498;-80
2023/03/23 04:27:53;;;;;;;19.33;18.03;;;11.80;99.90;;;;;;5094794;28;20480;-79
2023/03/23 04:30:24;;;;;;;18.13;17.07;;;11.70;99.90;;;;;;5093149;28;20470;-79
2023/03/23 04:32:54;;;;;;;14.70;13.80;;;11.80;99.90;;;;;;5093260;28;20453;-80
2023/03/23 04:35:25;;;;;;;17.20;16.10;;;11.80;99.90;;;;;;5075815;28;20453;-79
2023/03/23 04:37:53;;;;;;;16.00;14.90;;;11.80;99.90;;;;;;5093447;28;20478;-79
2023/03/23 04:40:23;;;;;;;16.77;15.80;;;11.90;99.90;;;;;;5075187;28;20996;-79
2023/03/23 04:42:51;;;;;;;13.27;11.60;;;11.80;99.90;;;;;;5093209;28;20453;-79
2023/03/23 04:45:26;;;;;;;13.00;12.13;;;11.80;99.90;;;;;;5079239;28;20450;-80
2023/03/23 04:47:57;;;;;;;8.27;7.57;;;11.90;99.90;;;;;;5107518;28;20562;-79
2023/03/23 04:50:26;;;;;;;7.83;7.23;;;11.90;99.90;;;;;;5104870;28;20477;-79
2023/03/23 04:52:53;;;;;;;7.50;6.80;;;12.00;99.90;;;;;;5094965;28;20453;-76
2023/03/23 04:55:24;;;;;;;7.07;5.83;;;12.00;99.90;;;;;;5094217;28;20507;-81
2023/03/23 04:57:50;;;;;;;24.70;15.83;;;12.10;99.90;;;;;;5096936;28;20471;-78
2023/03/23 05:00:21;;;;;;;6.57;5.07;;;12.10;99.90;;;;;;5093337;28;20827;-79
2023/03/23 05:02:51;;;;;;;4.90;3.67;;;12.20;99.90;;;;;;5054576;28;20898;-79
2023/03/23 05:05:20;;;;;;;5.43;3.37;;;12.20;99.90;;;;;;5068671;28;20450;-79
2023/03/23 05:07:52;;;;;;;6.47;4.20;;;12.20;99.90;;;;;;5078932;28;20469;-79
2023/03/23 05:10:20;;;;;;;7.70;3.73;;;12.20;99.90;;;;;;5074385;28;20466;-79
2023/03/23 05:12:49;;;;;;;6.93;3.67;;;12.10;99.90;;;;;;5072413;28;20451;-80
2023/03/23 05:18:20;;;;;;;5.57;3.63;;;12.20;99.90;;;;;;5153324;22;20945;-80
2023/03/23 05:34:37;;;;;;;5.90;3.03;;;12.10;99.90;;;;;;4400006;26;20478;-81
2023/03/23 05:37:05;;;;;;;7.07;3.47;;;12.10;99.90;;;;;;5073386;28;20504;-81
2023/03/23 05:39:34;;;;;;;6.20;2.90;;;12.10;99.90;;;;;;5053498;28;20529;-80
2023/03/23 05:42:02;;;;;;;5.70;2.70;;;12.10;99.90;;;;;;5061643;28;20954;-82
2023/03/23 05:44:29;;;;;;;5.60;3.40;;;12.10;99.90;;;;;;5051858;28;20455;-78
2023/03/23 05:47:00;;;;;;;7.13;3.50;;;12.00;99.90;;;;;;5053205;28;20459;-80
2023/03/23 05:49:27;;;;;;;7.83;3.37;;;11.90;99.90;;;;;;5065620;28;20547;-81
2023/03/23 05:51:58;;;;;;;4.83;2.80;;;11.90;99.90;;;;;;5054097;28;20478;-80
2023/03/23 05:54:25;;;;;;;5.93;2.20;;;11.90;99.90;;;;;;5053730;28;20870;-81
2023/03/23 05:56:52;;;;;;;9.00;3.17;;;11.90;99.90;;;;;;5035793;28;20451;-81
2023/03/23 05:59:22;;;;;;;7.13;2.90;;;11.90;99.90;;;;;;5044523;28;20466;-81
2023/03/23 06:01:53;;;;;;;6.23;2.93;;;11.80;99.90;;;;;;5053174;28;20460;-81
2023/03/23 06:04:24;;;;;;;5.20;2.77;;;11.80;99.90;;;;;;5041304;28;20911;-80
2023/03/23 06:06:52;;;;;;;6.47;2.57;;;11.80;99.90;;;;;;5071748;28;20461;-80
2023/03/23 06:09:24;;;;;;;7.43;3.10;;;11.80;99.90;;;;;;5052672;28;20525;-81
2023/03/23 06:11:53;;;;;;;5.50;2.73;;;12.00;99.90;;;;;;5047502;28;20478;-81
2023/03/23 06:14:22;;;;;;;7.33;2.50;;;12.10;99.90;;;;;;5059692;28;20453;-81
2023/03/23 06:16:51;;;;;;;6.00;2.70;;;12.20;99.90;;;;;;5051908;28;20501;-81
2023/03/23 06:19:20;;;;;;;6.80;2.40;;;12.20;99.90;;;;;;5066706;28;20492;-81
2023/03/23 06:21:46;;;;;;;6.03;2.77;;;12.30;99.90;;;;;;5042657;28;20502;-79
2023/03/23 06:24:14;;;;;;;6.67;2.83;;;12.30;99.90;;;;;;5051479;28;20548;-78
2023/03/23 06:26:43;;;;;;;7.37;2.93;;;12.40;99.90;;;;;;5061564;28;20449;-79
2023/03/23 06:29:11;;;;;;;7.73;2.50;;;12.40;99.90;;;;;;5064804;28;20562;-78
2023/03/23 06:31:42;;;;;;;5.90;2.07;;;12.50;99.90;;;;;;5063221;28;20462;-79
2023/03/23 06:34:09;;;;;;;10.43;2.67;;;12.50;99.90;;;;;;5070821;28;20470;-79
2023/03/23 06:36:36;;;;;;;6.80;2.03;;;12.50;99.90;;;;;;5076438;28;20482;-78
2023/03/23 06:39:05;;;;;;;8.23;3.00;;;12.50;99.90;;;;;;5068648;28;20528;-78
2023/03/23 06:41:32;;;;;;;6.90;2.03;;;12.60;99.90;;;;;;5062181;28;20483;-78
2023/03/23 06:44:00;;;;;;;5.83;2.30;;;12.60;99.90;;;;;;5064324;28;20486;-79
2023/03/23 06:46:28;;;;;;;6.37;1.80;;;12.60;99.90;;;;;;5068249;28;20534;-78
2023/03/23 06:48:55;;;;;;;8.73;2.20;;;12.60;99.90;;;;;;5054154;28;20467;-78
2023/03/23 06:51:22;;;;;;;6.30;2.43;;;12.70;99.90;;;;;;5055527;28;20487;-77
2023/03/23 06:53:51;;;;;;;9.50;2.60;;;12.70;99.90;;;;;;5059666;28;20978;-78
2023/03/23 06:56:18;;;;;;;6.20;1.83;;;12.70;99.90;;;;;;5055210;28;20875;-78
2023/03/23 06:58:45;;;;;;;6.07;2.53;;;12.70;99.90;;;;;;5062533;28;20472;-79
2023/03/23 07:01:19;;;;;;;7.47;2.50;;;12.80;99.90;;;;;;5056319;28;20454;-79
2023/03/23 07:03:50;;;;;;;8.03;2.57;;;12.80;99.90;;;;;;5064874;28;20479;-78
2023/03/23 07:06:19;;;;;;;5.23;2.00;;;12.70;99.90;;;;;;5068316;28;20455;-80
2023/03/23 07:08:46;;;;;;;6.00;2.23;;;12.70;99.90;;;;;;5074238;28;20564;-79
2023/03/23 07:11:13;;;;;;;4.67;2.10;;;12.70;99.90;;;;;;5054865;28;20479;-78
2023/03/23 07:13:41;;;;;;;7.33;1.90;;;12.80;99.90;;;;;;5064403;28;21081;-79
2023/03/23 07:16:09;;;;;;;5.57;1.90;;;12.80;99.90;;;;;;5058558;28;20447;-78
2023/03/23 07:18:37;;;;;;;4.77;2.13;;;12.80;99.90;;;;;;5054958;28;20499;-78
2023/03/23 07:21:05;;;;;;;6.20;2.30;;;12.90;99.90;;;;;;5060337;28;20551;-78
2023/03/23 07:23:32;;;;;;;4.73;1.67;;;12.90;99.90;;;;;;5055459;28;20451;-78
2023/03/23 07:26:00;;;;;;;7.30;2.00;;;13.00;99.90;;;;;;5064437;28;20546;-77
2023/03/23 07:28:27;;;;;;;7.67;2.00;;;13.10;99.90;;;;;;5036382;28;20471;-78
2023/03/23 07:30:54;;;;;;;5.93;1.70;;;13.10;99.90;;;;;;5054321;28;20471;-78
2023/03/23 07:33:21;;;;;;;5.83;2.10;;;13.10;99.90;;;;;;5068116;28;20473;-78
2023/03/23 07:35:49;;;;;;;5.70;1.97;;;13.10;99.90;;;;;;5059066;28;20455;-78
2023/03/23 07:38:16;;;;;;;5.33;2.03;;;13.20;99.90;;;;;;5054054;28;20475;-78
2023/03/23 07:40:43;;;;;;;13.87;2.23;;;13.30;99.90;;;;;;5053634;28;20674;-78
2023/03/23 07:43:12;;;;;;;8.43;1.63;;;13.30;99.90;;;;;;5053683;28;20451;-78
2023/03/23 07:45:38;;;;;;;6.20;2.20;;;13.40;99.90;;;;;;5054022;28;20452;-78
2023/03/23 07:48:06;;;;;;;4.80;1.60;;;13.40;99.90;;;;;;5036223;28;20978;-78
2023/03/23 07:50:35;;;;;;;9.20;2.33;;;13.40;99.90;;;;;;5065920;28;20465;-78
2023/03/23 07:53:03;;;;;;;4.80;1.57;;;13.50;99.90;;;;;;5072992;28;20826;-77
2023/03/23 07:55:30;;;;;;;5.30;1.80;;;13.50;99.90;;;;;;5073265;28;20450;-78
2023/03/23 07:57:57;;;;;;;5.20;1.60;;;13.60;99.90;;;;;;5072403;28;20471;-78
2023/03/23 08:00:26;;;;;;;6.97;1.73;;;13.70;99.90;;;;;;5073407;28;20455;-78
2023/03/23 08:02:56;;;;;;;6.57;2.30;;;13.60;99.90;;;;;;5072631;28;21055;-78
2023/03/23 08:05:25;;;;;;;5.13;1.90;;;13.80;99.90;;;;;;5072657;28;20450;-78
2023/03/23 08:07:53;;;;;;;5.60;1.80;;;13.80;99.90;;;;;;5072955;28;20904;-78
2023/03/23 08:10:23;;;;;;;10.30;1.80;;;13.90;99.90;;;;;;5072930;28;20450;-78
2023/03/23 08:12:53;;;;;;;6.53;1.80;;;13.90;99.90;;;;;;5072743;28;20474;-78
2023/03/23 08:15:24;;;;;;;6.77;3.17;;;14.00;99.90;;;;;;5072965;28;20450;-78
2023/03/23 08:17:52;;;;;;;10.20;1.60;;;14.00;99.90;;;;;;5072870;28;20478;-78
2023/03/23 08:20:25;;;;;;;10.97;1.93;;;14.00;99.90;;;;;;5072764;28;20833;-78
2023/03/23 08:22:55;;;;;;;4.40;1.40;;;14.10;99.60;;;;;;5072293;28;20450;-78
2023/03/23 08:25:25;;;;;;;4.90;1.40;;;14.10;99.30;;;;;;5072702;28;20458;-78
2023/03/23 08:27:53;;;;;;;6.10;1.70;;;14.20;99.40;;;;;;5072609;28;20481;-78
2023/03/23 08:30:24;;;;;;;7.00;2.30;;;14.30;99.40;;;;;;5072161;28;20454;-78
2023/03/23 08:32:54;;;;;;;6.33;1.83;;;14.30;98.50;;;;;;5072169;28;20479;-78
2023/03/23 08:35:21;;;;;;;5.13;1.40;;;14.40;98.80;;;;;;5072378;28;20987;-78
2023/03/23 08:37:50;;;;;;;9.37;1.83;;;14.50;99.10;;;;;;5072718;28;20566;-78
2023/03/23 08:40:19;;;;;;;6.87;1.40;;;14.60;99.10;;;;;;5054832;28;20897;-78
2023/03/23 08:42:48;;;;;;;4.93;1.47;;;14.60;98.30;;;;;;5072537;28;20496;-78
2023/03/23 08:45:26;;;;;;;9.37;2.10;;;14.90;98.30;;;;;;5073585;28;20453;-78
2023/03/23 08:47:54;;;;;;;5.10;1.83;;;15.10;97.90;;;;;;5072638;28;20478;-79
2023/03/23 08:50:27;;;;;;;8.33;2.33;;;15.20;97.00;;;;;;5073574;28;21014;-81
2023/03/23 08:52:56;;;;;;;12.10;2.00;;;15.30;97.30;;;;;;5071946;28;20503;-83
2023/03/23 08:55:24;;;;;;;8.33;1.93;;;15.30;97.10;;;;;;5073087;28;20456;-79
2023/03/23 08:57:52;;;;;;;7.40;1.83;;;15.30;97.20;;;;;;5073056;28;20476;-80
2023/03/23 09:00:24;;;;;;;4.83;1.40;;;15.30;97.20;;;;;;5072939;28;21088;-83
2023/03/23 09:02:53;;;;;;;7.47;1.90;;;15.20;97.20;;;;;;5073019;28;20448;-80
2023/03/23 09:05:24;;;;;;;10.70;1.97;;;15.20;96.50;;;;;;5056452;28;20978;-80
2023/03/23 09:07:53;;;;;;;7.97;1.60;;;15.20;97.10;;;;;;5072830;28;20475;-80
2023/03/23 09:10:24;;;;;;;5.37;1.83;;;15.30;97.10;;;;;;5072936;28;20456;-80
2023/03/23 09:12:56;;;;;;;7.30;2.47;;;15.20;97.10;;;;;;5072518;28;20856;-80
2023/03/23 09:15:24;;;;;;;10.87;1.83;;;15.10;95.90;;;;;;5072756;28;20862;-80
2023/03/23 09:17:53;;;;;;;5.20;1.60;;;15.10;95.50;;;;;;5072351;28;20498;-80
2023/03/23 09:20:25;;;;;;;6.20;1.90;;;15.00;96.10;;;;;;5072384;28;20453;-81
2023/03/23 09:22:54;;;;;;;7.13;1.70;;;15.10;96.00;;;;;;5072163;28;20451;-81
2023/03/23 09:25:25;;;;;;;7.50;1.70;;;14.90;94.50;;;;;;5072045;28;20459;-82
2023/03/23 09:27:56;;;;;;;14.13;1.80;;;14.80;94.60;;;;;;5072112;28;20476;-80
2023/03/23 09:30:26;;;;;;;9.03;1.80;;;14.80;94.40;;;;;;5072163;28;20472;-80
2023/03/23 09:32:53;;;;;;;13.33;2.30;;;14.60;92.90;;;;;;5071887;28;20478;-84
2023/03/23 09:35:22;;;;;;;7.20;1.30;;;14.60;92.90;;;;;;5072002;28;20549;-84
2023/03/23 09:37:51;;;;;;;6.83;1.87;;;14.40;92.80;;;;;;5072073;28;20507;-85
2023/03/23 09:40:21;;;;;;;13.00;2.00;;;14.40;92.80;;;;;;5072229;28;20459;-83
2023/03/23 09:43:26;;;;;;;7.80;2.03;;;14.40;93.00;;;;;;5071960;28;20947;-83
2023/03/23 09:46:01;;;;;;;5.87;1.60;;;14.30;93.80;;;;;;5072220;28;20462;-81
2023/03/23 09:48:37;;;;;;;8.83;2.10;;;14.50;94.80;;;;;;5071540;28;20476;-85
2023/03/23 09:51:12;;;;;;;7.43;1.40;;;14.50;94.70;;;;;;5054034;28;20468;-84
2023/03/23 09:53:45;;;;;;;6.43;1.70;;;14.60;94.40;;;;;;5071848;28;20492;-82
2023/03/23 09:56:14;;;;;;;6.07;1.40;;;14.70;94.50;;;;;;5072037;28;20492;-84
2023/03/23 09:58:50;;;;;;;7.80;1.87;;;14.80;93.60;;;;;;5070930;28;20464;-80
2023/03/23 10:01:24;;;;;;;9.20;2.10;;;14.90;95.10;;;;;;5070927;28;20533;-81
2023/03/23 10:04:04;;;;;;;5.90;1.90;;;14.90;94.70;;;;;;5070613;28;20455;-80
2023/03/23 10:06:31;;;;;;;8.47;1.70;;;15.00;95.30;;;;;;5070777;28;20456;-81
2023/03/23 10:09:03;;;;;;;8.10;2.57;;;15.10;94.80;;;;;;5070867;28;20469;-80
2023/03/23 10:11:42;;;;;;;8.37;1.60;;;15.10;95.20;;;;;;5070633;28;20946;-80
2023/03/23 10:17:05;;;;;;;6.67;1.60;;;14.70;96.40;;;;;;5282131;22;20487;-84
2023/03/23 10:19:38;;;;;;;7.87;1.37;;;14.40;97.20;;;;;;5073514;28;20517;-83
2023/03/23 10:22:12;;;;;;;6.00;1.70;;;14.20;97.40;;;;;;5057298;28;20457;-83
2023/03/23 10:24:47;;;;;;;7.20;1.53;;;14.20;98.80;;;;;;5073602;28;20459;-83
2023/03/23 10:27:22;;;;;;;6.40;1.57;;;14.00;98.60;;;;;;5091294;28;20837;-83
2023/03/23 10:29:54;;;;;;;6.10;1.47;;;14.10;99.30;;;;;;5091170;28;20464;-84
2023/03/23 10:32:36;;;;;;;7.13;1.47;;;13.90;99.20;;;;;;5090625;28;21092;-83
2023/03/23 10:35:07;;;;;;;5.20;1.63;;;13.60;99.90;;;;;;5090917;28;20453;-82
2023/03/23 10:37:40;;;;;;;4.23;1.50;;;13.00;99.90;;;;;;5090579;28;20503;-82
2023/03/23 10:40:15;;;;;;;4.97;2.13;;;12.20;99.90;;;;;;5090551;28;20536;-82
2023/03/23 10:42:43;;;;;;;3.73;1.80;;;11.90;99.90;;;;;;5073531;28;20462;-82
2023/03/23 10:45:18;;;;;;;4.70;3.07;;;11.50;99.90;;;;;;5090631;28;20813;-82
2023/03/23 10:47:52;;;;;;;5.40;3.23;;;11.20;99.90;;;;;;5090469;28;20495;-83
2023/03/23 10:50:26;;;;;;;8.33;7.60;;;11.20;99.90;;;;;;5091065;28;20471;-83
2023/03/23 10:52:56;;;;;;;15.90;14.83;;;11.20;99.90;;;;;;5090705;28;20522;-82
2023/03/23 10:55:26;;;;;;;86.37;83.27;;;11.30;99.90;;;;;;5090917;28;20492;-81
2023/03/23 10:58:02;;;;;;;30.37;28.90;;;11.30;99.90;;;;;;5078613;28;20578;-82
2023/03/23 11:00:31;;;;;;;12.90;10.10;;;11.20;99.90;;;;;;5070575;28;20457;-81
2023/03/23 11:03:05;;;;;;;11.23;10.47;;;11.10;99.90;;;;;;5070286;28;20500;-82
2023/03/23 11:05:39;;;;;;;6.40;5.87;;;11.30;99.90;;;;;;5070696;28;20457;-81
2023/03/23 11:08:13;;;;;;;21.20;19.93;;;11.30;99.90;;;;;;5069244;28;20981;-81
2023/03/23 11:10:42;;;;;;;13.90;13.07;;;11.20;99.90;;;;;;5070288;28;20603;-83
2023/03/23 11:13:15;;;;;;;8.00;7.40;;;11.10;99.90;;;;;;5069964;28;21032;-82
2023/03/23 11:15:45;;;;;;;9.40;8.67;;;11.30;99.90;;;;;;5070536;28;20462;-83
2023/03/23 11:18:20;;;;;;;9.17;8.50;;;11.20;99.90;;;;;;5072170;28;20477;-82
2023/03/23 11:20:51;;;;;;;59.17;56.83;;;11.10;99.90;;;;;;5073796;28;20456;-82
2023/03/23 11:23:23;;;;;;;104.83;100.90;;;11.10;99.90;;;;;;5073407;28;20482;-82
2023/03/23 11:26:04;;;;;;;68.70;66.10;;;11.10;99.90;;;;;;5073662;28;20460;-79
2023/03/23 11:28:36;;;;;;;54.27;52.03;;;11.30;99.90;;;;;;5073203;28;20477;-79
2023/03/23 11:31:06;;;;;;;40.47;38.77;;;11.60;99.90;;;;;;5072523;28;20458;-79
2023/03/23 11:33:40;;;;;;;79.47;76.53;;;11.80;99.90;;;;;;5073150;28;20564;-78
2023/03/23 11:36:09;;;;;;;59.37;56.97;;;12.10;99.90;;;;;;5073849;28;20462;-78
2023/03/23 11:38:37;;;;;;;27.30;25.87;;;11.90;99.90;;;;;;5074468;28;20475;-79
2023/03/23 11:41:11;;;;;;;22.10;21.07;;;11.80;99.90;;;;;;5073948;28;20450;-80
2023/03/23 11:43:41;;;;;;;145.57;140.47;;;11.60;99.90;;;;;;5073813;28;20499;-81
2023/03/23 11:46:33;;;;;;;172.93;167.30;;;11.40;99.90;;;;;;5074138;28;20463;-81
2023/03/23 11:49:04;;;;;;;133.40;128.80;;;11.30;99.90;;;;;;5073789;28;20552;-80
2023/03/23 11:51:35;;;;;;;304.93;295.20;;;10.90;99.90;;;;;;5074007;28;20455;-79
2023/03/23 11:54:12;;;;;;;272.90;264.23;;;11.10;99.90;;;;;;5074005;28;20478;-78
2023/03/23 11:56:42;;;;;;;642.30;611.13;;;11.20;99.90;;;;;;5072687;28;20471;-79
2023/03/23 11:59:14;;;;;;;647.77;613.87;;;11.50;99.90;;;;;;5073682;28;20470;-80
2023/03/23 12:01:55;;;;;;;630.17;598.17;;;11.70;99.90;;;;;;5073719;28;20508;-79
2023/03/23 12:04:53;;;;;;;607.57;574.50;;;11.70;99.90;;;;;;5074043;28;20533;-79
2023/03/23 12:07:48;;;;;;;646.83;604.17;;;12.00;99.90;;;;;;5066121;28;20450;-79
2023/03/23 12:10:26;;;;;;;618.43;580.33;;;12.40;99.90;;;;;;5067983;28;20453;-80
2023/03/23 12:13:03;;;;;;;589.93;553.63;;;12.90;99.90;;;;;;5073528;28;20511;-80
2023/03/23 12:15:36;;;;;;;485.67;466.37;;;13.60;99.90;;;;;;5073111;28;20457;-80
2023/03/23 12:18:14;;;;;;;423.97;408.43;;;13.70;99.90;;;;;;5072161;28;20540;-80
2023/03/23 12:20:55;;;;;;;456.50;439.13;;;14.00;99.90;;;;;;5071995;28;20454;-80
2023/03/23 12:23:27;;;;;;;229.23;221.53;;;14.50;99.90;;;;;;5073064;28;20483;-79
2023/03/23 12:26:12;;;;;;;79.07;75.83;;;14.60;99.90;;;;;;5073523;28;20455;-80
2023/03/23 12:28:56;;;;;;;9.77;8.90;;;14.70;99.90;;;;;;5072955;28;20501;-80
2023/03/23 12:31:30;;;;;;;8.73;4.53;;;14.80;99.90;;;;;;5073088;28;20507;-80
2023/03/23 12:34:05;;;;;;;8.30;4.93;;;14.60;99.90;;;;;;5072501;28;21003;-80
2023/03/23 12:36:48;;;;;;;5.50;4.33;;;14.70;99.90;;;;;;5072996;28;20452;-80
2023/03/23 12:39:50;;;;;;;6.00;4.17;;;14.70;99.90;;;;;;5072796;28;20490;-79
2023/03/23 12:42:25;;;;;;;6.73;4.00;;;14.50;99.90;;;;;;5072459;28;20459;-80
2023/03/23 12:44:57;;;;;;;10.53;5.20;;;14.40;99.90;;;;;;5072758;28;20837;-79
2023/03/23 12:47:37;;;;;;;14.13;13.13;;;14.10;99.90;;;;;;5072734;28;20498;-79
2023/03/23 12:50:11;;;;;;;11.67;10.77;;;13.90;99.90;;;;;;5072678;28;20460;-79
2023/03/23 12:52:45;;;;;;;24.77;23.07;;;13.60;99.90;;;;;;5072383;28;20480;-79
2023/03/23 12:55:18;;;;;;;30.70;29.07;;;13.60;99.90;;;;;;5072577;28;20454;-79
2023/03/23 12:57:51;;;;;;;20.80;19.60;;;13.60;99.90;;;;;;5072673;28;20483;-79
2023/03/23 13:00:23;;;;;;;11.37;10.40;;;13.60;99.90;;;;;;5072577;28;20466;-79
2023/03/23 13:02:55;;;;;;;17.73;16.53;;;13.60;99.90;;;;;;5072153;28;20447;-79
2023/03/23 13:05:39;;;;;;;17.30;16.10;;;13.70;99.90;;;;;;5072469;28;20519;-79
2023/03/23 13:08:15;;;;;;;20.33;19.20;;;13.70;99.90;;;;;;5072039;28;20500;-79
2023/03/23 13:10:46;;;;;;;16.77;15.80;;;13.80;99.90;;;;;;5072497;28;20457;-80
2023/03/23 13:13:18;;;;;;;15.27;14.30;;;13.80;99.90;;;;;;5070625;28;20472;-79
2023/03/23 13:15:52;;;;;;;44.17;42.17;;;13.70;99.90;;;;;;5072044;28;21192;-79
2023/03/23 13:18:26;;;;;;;39.20;37.20;;;13.70;99.90;;;;;;5072210;28;20473;-79
2023/03/23 13:21:01;;;;;;;6.93;6.20;;;13.80;99.90;;;;;;5071995;28;20451;-79